sensor_id;sensor_type;location;lat;lon;timestamp;pressure;altitude;pressure_sealevel;temperature
20848;BMP180;10584;50.854;12.902;2023-03-01T00:03:35;99238.00;;;-5.20
20848;BMP180;10584;50.854;12.902;2023-03-01T00:08:57;99245.00;;;-5.20
20848;BMP180;10584;50.854;12.902;2023-03-01T00:14:19;99240.00;;;-5.30
20848;BMP180;10584;50.854;12.902;2023-03-01T00:19:41;99236.00;;;-5.40
20848;BMP180;10584;50.854;12.902;2023-03-01T00:25:03;99239.00;;;-5.40
20848;BMP180;10584;50.854;12.902;2023-03-01T00:30:24;99245.00;;;-5.50
20848;BMP180;10584;50.854;12.902;2023-03-01T00:35:46;99249.00;;;-5.60
20848;BMP180;10584;50.854;12.902;2023-03-01T00:41:10;99243.00;;;-5.60
20848;BMP180;10584;50.854;12.902;2023-03-01T00:46:32;99244.00;;;-5.70
20848;BMP180;10584;50.854;12.902;2023-03-01T00:51:55;99242.00;;;-5.80
20848;BMP180;10584;50.854;12.902;2023-03-01T00:57:17;99221.00;;;-5.80
20848;BMP180;10584;50.854;12.902;2023-03-01T01:02:39;99226.00;;;-5.90
20848;BMP180;10584;50.854;12.902;2023-03-01T01:08:01;99220.00;;;-6.00
20848;BMP180;10584;50.854;12.902;2023-03-01T01:13:22;99218.00;;;-6.00
20848;BMP180;10584;50.854;12.902;2023-03-01T01:18:45;99200.00;;;-6.10
20848;BMP180;10584;50.854;12.902;2023-03-01T01:24:06;99201.00;;;-6.20
20848;BMP180;10584;50.854;12.902;2023-03-01T01:29:28;99200.00;;;-6.20
20848;BMP180;10584;50.854;12.902;2023-03-01T01:34:50;99168.00;;;-6.20
20848;BMP180;10584;50.854;12.902;2023-03-01T01:40:12;99179.00;;;-6.30
20848;BMP180;10584;50.854;12.902;2023-03-01T01:45:35;99182.00;;;-6.30
20848;BMP180;10584;50.854;12.902;2023-03-01T01:50:59;99176.00;;;-6.30
20848;BMP180;10584;50.854;12.902;2023-03-01T01:56:23;99171.00;;;-6.30
20848;BMP180;10584;50.854;12.902;2023-03-01T02:01:47;99165.00;;;-6.40
20848;BMP180;10584;50.854;12.902;2023-03-01T02:07:21;99162.00;;;-6.50
20848;BMP180;10584;50.854;12.902;2023-03-01T02:12:44;99162.00;;;-6.50
20848;BMP180;10584;50.854;12.902;2023-03-01T02:18:07;99148.00;;;-6.60
20848;BMP180;10584;50.854;12.902;2023-03-01T02:23:30;99154.00;;;-6.60
20848;BMP180;10584;50.854;12.902;2023-03-01T02:28:52;99153.00;;;-6.70
20848;BMP180;10584;50.854;12.902;2023-03-01T02:34:20;99155.00;;;-6.70
20848;BMP180;10584;50.854;12.902;2023-03-01T02:39:48;99155.00;;;-6.80
20848;BMP180;10584;50.854;12.902;2023-03-01T02:45:11;99165.00;;;-6.80
20848;BMP180;10584;50.854;12.902;2023-03-01T02:56:26;99159.00;;;-6.90
20848;BMP180;10584;50.854;12.902;2023-03-01T03:01:48;99150.00;;;-6.90
20848;BMP180;10584;50.854;12.902;2023-03-01T03:07:10;99135.00;;;-7.00
20848;BMP180;10584;50.854;12.902;2023-03-01T03:12:32;99128.00;;;-7.10
20848;BMP180;10584;50.854;12.902;2023-03-01T03:17:55;99123.00;;;-7.10
20848;BMP180;10584;50.854;12.902;2023-03-01T03:23:17;99129.00;;;-7.10
20848;BMP180;10584;50.854;12.902;2023-03-01T03:28:38;99140.00;;;-7.20
20848;BMP180;10584;50.854;12.902;2023-03-01T03:34:00;99135.00;;;-7.20
20848;BMP180;10584;50.854;12.902;2023-03-01T03:39:23;99121.00;;;-7.30
20848;BMP180;10584;50.854;12.902;2023-03-01T03:44:44;99109.00;;;-7.30
20848;BMP180;10584;50.854;12.902;2023-03-01T03:50:06;99089.00;;;-7.30
20848;BMP180;10584;50.854;12.902;2023-03-01T03:55:28;99093.00;;;-7.40
20848;BMP180;10584;50.854;12.902;2023-03-01T04:00:56;99106.00;;;-7.40
20848;BMP180;10584;50.854;12.902;2023-03-01T04:06:18;99101.00;;;-7.50
20848;BMP180;10584;50.854;12.902;2023-03-01T04:11:40;99115.00;;;-7.50
20848;BMP180;10584;50.854;12.902;2023-03-01T04:17:02;99110.00;;;-7.50
20848;BMP180;10584;50.854;12.902;2023-03-01T04:22:26;99104.00;;;-7.60
20848;BMP180;10584;50.854;12.902;2023-03-01T04:27:50;99100.00;;;-7.70
20848;BMP180;10584;50.854;12.902;2023-03-01T04:33:12;99099.00;;;-7.70
20848;BMP180;10584;50.854;12.902;2023-03-01T04:38:34;99092.00;;;-7.70
20848;BMP180;10584;50.854;12.902;2023-03-01T04:43:59;99095.00;;;-7.70
20848;BMP180;10584;50.854;12.902;2023-03-01T04:49:21;99103.00;;;-7.70
20848;BMP180;10584;50.854;12.902;2023-03-01T04:54:42;99100.00;;;-7.80
20848;BMP180;10584;50.854;12.902;2023-03-01T05:00:06;99089.00;;;-7.90
20848;BMP180;10584;50.854;12.902;2023-03-01T05:05:41;99091.00;;;-7.90
20848;BMP180;10584;50.854;12.902;2023-03-01T05:11:02;99086.00;;;-7.90
20848;BMP180;10584;50.854;12.902;2023-03-01T05:16:24;99095.00;;;-8.00
20848;BMP180;10584;50.854;12.902;2023-03-01T05:21:46;99102.00;;;-8.00
20848;BMP180;10584;50.854;12.902;2023-03-01T05:27:23;99090.00;;;-8.10
20848;BMP180;10584;50.854;12.902;2023-03-01T05:32:47;99078.00;;;-8.10
20848;BMP180;10584;50.854;12.902;2023-03-01T05:38:13;99085.00;;;-8.10
20848;BMP180;10584;50.854;12.902;2023-03-01T05:43:34;99084.00;;;-8.10
20848;BMP180;10584;50.854;12.902;2023-03-01T05:48:56;99078.00;;;-8.20
20848;BMP180;10584;50.854;12.902;2023-03-01T05:54:19;99085.00;;;-8.20
20848;BMP180;10584;50.854;12.902;2023-03-01T05:59:41;99084.00;;;-8.30
20848;BMP180;10584;50.854;12.902;2023-03-01T06:05:03;99095.00;;;-8.30
20848;BMP180;10584;50.854;12.902;2023-03-01T06:10:24;99088.00;;;-8.30
20848;BMP180;10584;50.854;12.902;2023-03-01T06:15:46;99087.00;;;-8.30
20848;BMP180;10584;50.854;12.902;2023-03-01T06:21:08;99090.00;;;-8.30
20848;BMP180;10584;50.854;12.902;2023-03-01T06:26:30;99089.00;;;-8.30
20848;BMP180;10584;50.854;12.902;2023-03-01T06:31:52;99094.00;;;-8.30
20848;BMP180;10584;50.854;12.902;2023-03-01T06:37:14;99086.00;;;-8.20
20848;BMP180;10584;50.854;12.902;2023-03-01T06:42:37;99084.00;;;-8.20
20848;BMP180;10584;50.854;12.902;2023-03-01T06:48:06;99099.00;;;-8.10
20848;BMP180;10584;50.854;12.902;2023-03-01T06:53:29;99095.00;;;-8.10
20848;BMP180;10584;50.854;12.902;2023-03-01T06:58:51;99092.00;;;-7.90
20848;BMP180;10584;50.854;12.902;2023-03-01T07:04:13;99088.00;;;-7.60
20848;BMP180;10584;50.854;12.902;2023-03-01T07:09:35;99091.00;;;-7.20
20848;BMP180;10584;50.854;12.902;2023-03-01T07:14:56;99097.00;;;-6.90
20848;BMP180;10584;50.854;12.902;2023-03-01T07:20:19;99098.00;;;-6.60
20848;BMP180;10584;50.854;12.902;2023-03-01T07:25:52;99096.00;;;-6.10
20848;BMP180;10584;50.854;12.902;2023-03-01T07:31:15;99109.00;;;-5.60
20848;BMP180;10584;50.854;12.902;2023-03-01T07:36:37;99103.00;;;-5.10
20848;BMP180;10584;50.854;12.902;2023-03-01T07:41:58;99097.00;;;-4.80
20848;BMP180;10584;50.854;12.902;2023-03-01T07:47:20;99100.00;;;-4.40
20848;BMP180;10584;50.854;12.902;2023-03-01T07:52:44;99100.00;;;-3.90
20848;BMP180;10584;50.854;12.902;2023-03-01T07:58:06;99075.00;;;-3.60
20848;BMP180;10584;50.854;12.902;2023-03-01T08:03:28;99063.00;;;-3.40
20848;BMP180;10584;50.854;12.902;2023-03-01T08:08:50;99075.00;;;-3.00
20848;BMP180;10584;50.854;12.902;2023-03-01T08:14:11;99055.00;;;-2.50
20848;BMP180;10584;50.854;12.902;2023-03-01T08:19:33;99054.00;;;-2.40
20848;BMP180;10584;50.854;12.902;2023-03-01T08:24:56;99043.00;;;-1.90
20848;BMP180;10584;50.854;12.902;2023-03-01T08:30:17;99043.00;;;-1.70
20848;BMP180;10584;50.854;12.902;2023-03-01T08:35:39;99041.00;;;-1.50
20848;BMP180;10584;50.854;12.902;2023-03-01T08:41:02;99040.00;;;-1.10
20848;BMP180;10584;50.854;12.902;2023-03-01T08:46:26;99041.00;;;-1.30
20848;BMP180;10584;50.854;12.902;2023-03-01T08:51:48;99032.00;;;-1.00
20848;BMP180;10584;50.854;12.902;2023-03-01T08:57:10;99024.00;;;-0.60
20848;BMP180;10584;50.854;12.902;2023-03-01T09:02:32;99023.00;;;-0.40
20848;BMP180;10584;50.854;12.902;2023-03-01T09:07:53;99029.00;;;-0.10
20848;BMP180;10584;50.854;12.902;2023-03-01T09:13:15;99028.00;;;0.10
20848;BMP180;10584;50.854;12.902;2023-03-01T09:18:36;99003.00;;;0.00
20848;BMP180;10584;50.854;12.902;2023-03-01T09:23:58;98998.00;;;0.40
20848;BMP180;10584;50.854;12.902;2023-03-01T09:29:20;98988.00;;;0.60
20848;BMP180;10584;50.854;12.902;2023-03-01T09:34:42;98999.00;;;0.80
20848;BMP180;10584;50.854;12.902;2023-03-01T09:40:24;99005.00;;;1.00
20848;BMP180;10584;50.854;12.902;2023-03-01T09:45:49;98999.00;;;1.00
20848;BMP180;10584;50.854;12.902;2023-03-01T09:51:19;99014.00;;;1.20
20848;BMP180;10584;50.854;12.902;2023-03-01T09:57:01;99001.00;;;1.70
20848;BMP180;10584;50.854;12.902;2023-03-01T10:02:38;98994.00;;;1.70
20848;BMP180;10584;50.854;12.902;2023-03-01T10:13:54;99016.00;;;2.20
20848;BMP180;10584;50.854;12.902;2023-03-01T10:19:31;99003.00;;;2.40
20848;BMP180;10584;50.854;12.902;2023-03-01T10:24:56;98998.00;;;2.80
20848;BMP180;10584;50.854;12.902;2023-03-01T10:35:55;98986.00;;;3.20
20848;BMP180;10584;50.854;12.902;2023-03-01T10:41:17;98993.00;;;3.30
20848;BMP180;10584;50.854;12.902;2023-03-01T10:46:39;98979.00;;;3.20
20848;BMP180;10584;50.854;12.902;2023-03-01T10:52:18;98977.00;;;3.50
20848;BMP180;10584;50.854;12.902;2023-03-01T10:57:41;98978.00;;;3.50
20848;BMP180;10584;50.854;12.902;2023-03-01T11:03:11;98980.00;;;3.60
20848;BMP180;10584;50.854;12.902;2023-03-01T11:08:46;98981.00;;;3.90
20848;BMP180;10584;50.854;12.902;2023-03-01T11:14:19;98968.00;;;3.60
20848;BMP180;10584;50.854;12.902;2023-03-01T11:20:02;98975.00;;;4.00
20848;BMP180;10584;50.854;12.902;2023-03-01T11:25:35;98959.00;;;4.00
20848;BMP180;10584;50.854;12.902;2023-03-01T11:31:06;98961.00;;;4.10
20848;BMP180;10584;50.854;12.902;2023-03-01T11:36:44;98971.00;;;4.20
20848;BMP180;10584;50.854;12.902;2023-03-01T11:48:06;98965.00;;;4.10
20848;BMP180;10584;50.854;12.902;2023-03-01T12:10:48;98955.00;;;4.50
20848;BMP180;10584;50.854;12.902;2023-03-01T12:22:20;98938.00;;;4.90
20848;BMP180;10584;50.854;12.902;2023-03-01T12:39:03;98922.00;;;4.70
20848;BMP180;10584;50.854;12.902;2023-03-01T12:45:32;98933.00;;;4.90
20848;BMP180;10584;50.854;12.902;2023-03-01T12:50:42;98924.00;;;4.80
20848;BMP180;10584;50.854;12.902;2023-03-01T12:56:11;98925.00;;;4.50
20848;BMP180;10584;50.854;12.902;2023-03-01T13:07:37;98902.00;;;4.80
20848;BMP180;10584;50.854;12.902;2023-03-01T13:18:34;98904.00;;;5.00
20848;BMP180;10584;50.854;12.902;2023-03-01T13:23:56;98898.00;;;5.00
20848;BMP180;10584;50.854;12.902;2023-03-01T13:29:27;98901.00;;;5.00
20848;BMP180;10584;50.854;12.902;2023-03-01T13:35:03;98910.00;;;4.90
20848;BMP180;10584;50.854;12.902;2023-03-01T13:45:51;98906.00;;;4.70
20848;BMP180;10584;50.854;12.902;2023-03-01T13:51:14;98897.00;;;4.40
20848;BMP180;10584;50.854;12.902;2023-03-01T13:56:37;98900.00;;;4.50
20848;BMP180;10584;50.854;12.902;2023-03-01T14:02:00;98903.00;;;4.60
20848;BMP180;10584;50.854;12.902;2023-03-01T14:07:23;98913.00;;;4.50
20848;BMP180;10584;50.854;12.902;2023-03-01T14:13:22;98903.00;;;4.40
20848;BMP180;10584;50.854;12.902;2023-03-01T14:24:46;98879.00;;;4.60
20848;BMP180;10584;50.854;12.902;2023-03-01T14:30:42;98877.00;;;4.50
20848;BMP180;10584;50.854;12.902;2023-03-01T14:36:06;98882.00;;;4.60
20848;BMP180;10584;50.854;12.902;2023-03-01T14:41:28;98879.00;;;4.50
20848;BMP180;10584;50.854;12.902;2023-03-01T14:46:57;98868.00;;;4.70
20848;BMP180;10584;50.854;12.902;2023-03-01T14:52:21;98855.00;;;4.80
20848;BMP180;10584;50.854;12.902;2023-03-01T14:57:49;98845.00;;;4.80
20848;BMP180;10584;50.854;12.902;2023-03-01T15:03:20;98849.00;;;4.60
20848;BMP180;10584;50.854;12.902;2023-03-01T15:08:52;98858.00;;;4.70
20848;BMP180;10584;50.854;12.902;2023-03-01T15:14:28;98834.00;;;4.80
20848;BMP180;10584;50.854;12.902;2023-03-01T15:19:50;98837.00;;;5.00
20848;BMP180;10584;50.854;12.902;2023-03-01T15:25:18;98834.00;;;5.00
20848;BMP180;10584;50.854;12.902;2023-03-01T15:30:40;98829.00;;;4.80
20848;BMP180;10584;50.854;12.902;2023-03-01T15:41:48;98826.00;;;4.60
20848;BMP180;10584;50.854;12.902;2023-03-01T15:47:28;98826.00;;;4.50
20848;BMP180;10584;50.854;12.902;2023-03-01T15:52:51;98819.00;;;4.40
20848;BMP180;10584;50.854;12.902;2023-03-01T15:58:18;98831.00;;;4.10
20848;BMP180;10584;50.854;12.902;2023-03-01T16:03:40;98838.00;;;4.00
20848;BMP180;10584;50.854;12.902;2023-03-01T16:09:02;98828.00;;;3.90
20848;BMP180;10584;50.854;12.902;2023-03-01T16:14:24;98837.00;;;3.80
20848;BMP180;10584;50.854;12.902;2023-03-01T16:19:45;98838.00;;;3.60
20848;BMP180;10584;50.854;12.902;2023-03-01T16:25:08;98844.00;;;3.20
20848;BMP180;10584;50.854;12.902;2023-03-01T16:30:30;98837.00;;;3.30
20848;BMP180;10584;50.854;12.902;2023-03-01T16:35:52;98840.00;;;3.10
20848;BMP180;10584;50.854;12.902;2023-03-01T16:41:16;98846.00;;;3.00
20848;BMP180;10584;50.854;12.902;2023-03-01T16:46:37;98848.00;;;2.90
20848;BMP180;10584;50.854;12.902;2023-03-01T16:51:59;98853.00;;;2.70
20848;BMP180;10584;50.854;12.902;2023-03-01T16:57:21;98864.00;;;2.60
20848;BMP180;10584;50.854;12.902;2023-03-01T17:02:43;98868.00;;;2.40
20848;BMP180;10584;50.854;12.902;2023-03-01T17:08:04;98874.00;;;2.30
20848;BMP180;10584;50.854;12.902;2023-03-01T17:13:26;98870.00;;;2.10
20848;BMP180;10584;50.854;12.902;2023-03-01T17:18:48;98870.00;;;1.90
20848;BMP180;10584;50.854;12.902;2023-03-01T17:24:11;98865.00;;;1.70
20848;BMP180;10584;50.854;12.902;2023-03-01T17:29:33;98859.00;;;1.50
20848;BMP180;10584;50.854;12.902;2023-03-01T17:34:55;98857.00;;;1.20
20848;BMP180;10584;50.854;12.902;2023-03-01T17:40:17;98865.00;;;1.10
20848;BMP180;10584;50.854;12.902;2023-03-01T17:45:39;98870.00;;;1.00
20848;BMP180;10584;50.854;12.902;2023-03-01T17:51:06;98862.00;;;0.80
20848;BMP180;10584;50.854;12.902;2023-03-01T17:56:27;98861.00;;;0.60
20848;BMP180;10584;50.854;12.902;2023-03-01T18:01:49;98858.00;;;0.50
20848;BMP180;10584;50.854;12.902;2023-03-01T18:07:11;98874.00;;;0.30
20848;BMP180;10584;50.854;12.902;2023-03-01T18:12:33;98872.00;;;0.20
20848;BMP180;10584;50.854;12.902;2023-03-01T18:17:54;98867.00;;;0.00
20848;BMP180;10584;50.854;12.902;2023-03-01T18:23:16;98873.00;;;-0.10
20848;BMP180;10584;50.854;12.902;2023-03-01T18:28:38;98872.00;;;-0.20
20848;BMP180;10584;50.854;12.902;2023-03-01T18:34:00;98863.00;;;-0.30
20848;BMP180;10584;50.854;12.902;2023-03-01T18:39:22;98858.00;;;-0.40
20848;BMP180;10584;50.854;12.902;2023-03-01T18:44:44;98837.00;;;-0.50
20848;BMP180;10584;50.854;12.902;2023-03-01T18:50:06;98843.00;;;-0.70
20848;BMP180;10584;50.854;12.902;2023-03-01T18:55:28;98843.00;;;-0.70
20848;BMP180;10584;50.854;12.902;2023-03-01T19:00:50;98836.00;;;-0.90
20848;BMP180;10584;50.854;12.902;2023-03-01T19:06:12;98844.00;;;-1.00
20848;BMP180;10584;50.854;12.902;2023-03-01T19:11:34;98839.00;;;-1.10
20848;BMP180;10584;50.854;12.902;2023-03-01T19:16:56;98851.00;;;-1.20
20848;BMP180;10584;50.854;12.902;2023-03-01T19:22:17;98847.00;;;-1.30
20848;BMP180;10584;50.854;12.902;2023-03-01T19:27:39;98847.00;;;-1.30
20848;BMP180;10584;50.854;12.902;2023-03-01T19:33:01;98847.00;;;-1.50
20848;BMP180;10584;50.854;12.902;2023-03-01T19:38:23;98824.00;;;-1.50
20848;BMP180;10584;50.854;12.902;2023-03-01T19:43:45;98830.00;;;-1.60
20848;BMP180;10584;50.854;12.902;2023-03-01T19:49:07;98841.00;;;-1.70
20848;BMP180;10584;50.854;12.902;2023-03-01T19:54:29;98828.00;;;-1.70
20848;BMP180;10584;50.854;12.902;2023-03-01T19:59:51;98840.00;;;-1.80
20848;BMP180;10584;50.854;12.902;2023-03-01T20:05:12;98836.00;;;-1.90
20848;BMP180;10584;50.854;12.902;2023-03-01T20:10:34;98838.00;;;-2.00
20848;BMP180;10584;50.854;12.902;2023-03-01T20:15:57;98831.00;;;-2.10
20848;BMP180;10584;50.854;12.902;2023-03-01T20:21:18;98839.00;;;-2.20
20848;BMP180;10584;50.854;12.902;2023-03-01T20:26:45;98847.00;;;-2.20
20848;BMP180;10584;50.854;12.902;2023-03-01T20:32:06;98842.00;;;-2.20
20848;BMP180;10584;50.854;12.902;2023-03-01T20:37:29;98829.00;;;-2.20
20848;BMP180;10584;50.854;12.902;2023-03-01T20:42:50;98826.00;;;-2.30
20848;BMP180;10584;50.854;12.902;2023-03-01T20:48:12;98833.00;;;-2.30
20848;BMP180;10584;50.854;12.902;2023-03-01T20:53:34;98828.00;;;-2.40
20848;BMP180;10584;50.854;12.902;2023-03-01T20:58:55;98823.00;;;-2.50
20848;BMP180;10584;50.854;12.902;2023-03-01T21:04:22;98825.00;;;-2.50
20848;BMP180;10584;50.854;12.902;2023-03-01T21:09:44;98819.00;;;-2.60
20848;BMP180;10584;50.854;12.902;2023-03-01T21:15:06;98809.00;;;-2.70
20848;BMP180;10584;50.854;12.902;2023-03-01T21:20:31;98827.00;;;-2.70
20848;BMP180;10584;50.854;12.902;2023-03-01T21:26:04;98822.00;;;-2.70
20848;BMP180;10584;50.854;12.902;2023-03-01T21:31:29;98834.00;;;-2.70
20848;BMP180;10584;50.854;12.902;2023-03-01T21:36:52;98825.00;;;-2.80
20848;BMP180;10584;50.854;12.902;2023-03-01T21:42:13;98810.00;;;-2.80
20848;BMP180;10584;50.854;12.902;2023-03-01T21:47:35;98808.00;;;-2.90
20848;BMP180;10584;50.854;12.902;2023-03-01T21:52:58;98794.00;;;-2.90
20848;BMP180;10584;50.854;12.902;2023-03-01T21:58:20;98781.00;;;-3.00
20848;BMP180;10584;50.854;12.902;2023-03-01T22:03:43;98786.00;;;-3.00
20848;BMP180;10584;50.854;12.902;2023-03-01T22:09:12;98795.00;;;-3.10
20848;BMP180;10584;50.854;12.902;2023-03-01T22:14:34;98786.00;;;-3.10
20848;BMP180;10584;50.854;12.902;2023-03-01T22:19:56;98779.00;;;-3.10
20848;BMP180;10584;50.854;12.902;2023-03-01T22:25:17;98767.00;;;-3.20
20848;BMP180;10584;50.854;12.902;2023-03-01T22:30:39;98770.00;;;-3.20
20848;BMP180;10584;50.854;12.902;2023-03-01T22:36:01;98767.00;;;-3.20
20848;BMP180;10584;50.854;12.902;2023-03-01T22:41:23;98770.00;;;-3.30
20848;BMP180;10584;50.854;12.902;2023-03-01T22:46:45;98748.00;;;-3.30
20848;BMP180;10584;50.854;12.902;2023-03-01T22:52:06;98747.00;;;-3.40
20848;BMP180;10584;50.854;12.902;2023-03-01T22:57:28;98741.00;;;-3.40
20848;BMP180;10584;50.854;12.902;2023-03-01T23:02:50;98741.00;;;-3.50
20848;BMP180;10584;50.854;12.902;2023-03-01T23:08:11;98739.00;;;-3.60
20848;BMP180;10584;50.854;12.902;2023-03-01T23:13:33;98754.00;;;-3.70
20848;BMP180;10584;50.854;12.902;2023-03-01T23:18:56;98750.00;;;-3.70
20848;BMP180;10584;50.854;12.902;2023-03-01T23:24:25;98747.00;;;-3.70
20848;BMP180;10584;50.854;12.902;2023-03-01T23:29:52;98750.00;;;-3.80
20848;BMP180;10584;50.854;12.902;2023-03-01T23:35:14;98742.00;;;-3.80
20848;BMP180;10584;50.854;12.902;2023-03-01T23:40:38;98743.00;;;-3.90
20848;BMP180;10584;50.854;12.902;2023-03-01T23:45:59;98738.00;;;-3.90
20848;BMP180;10584;50.854;12.902;2023-03-01T23:51:22;98729.00;;;-3.90
20848;BMP180;10584;50.854;12.902;2023-03-01T23:56:44;98718.00;;;-4.00
